createdAt,value
2018-09-07T00:00:56.054Z,988.17
2018-09-07T00:02:48.946Z,988.21
2018-09-07T00:03:48.936Z,988.20
2018-09-07T00:05:41.801Z,988.17
2018-09-07T00:06:41.780Z,988.19
2018-09-07T00:08:34.662Z,988.16
2018-09-07T00:09:34.646Z,988.21
2018-09-07T00:11:27.539Z,988.19
2018-09-07T00:12:27.516Z,988.25
2018-09-07T00:14:20.393Z,988.24
2018-09-07T00:15:20.381Z,988.28
2018-09-07T00:17:13.275Z,988.28
2018-09-07T00:18:13.262Z,988.28
2018-09-07T00:20:06.141Z,988.31
2018-09-07T00:21:06.118Z,988.30
2018-09-07T00:22:58.995Z,988.26
2018-09-07T00:23:58.985Z,988.30
2018-09-07T00:25:52.381Z,988.28
2018-09-07T00:26:52.356Z,988.30
2018-09-07T00:28:45.226Z,988.29
2018-09-07T00:29:45.217Z,988.35
2018-09-07T00:31:38.633Z,988.35
2018-09-07T00:32:38.583Z,988.32
2018-09-07T00:34:31.462Z,988.36
2018-09-07T00:35:31.448Z,988.33
2018-09-07T00:37:24.332Z,988.36
2018-09-07T00:38:24.310Z,988.36
2018-09-07T00:40:17.198Z,988.32
2018-09-07T00:41:17.174Z,988.35
2018-09-07T00:43:10.056Z,988.32
2018-09-07T00:44:10.035Z,988.35
2018-09-07T00:46:02.928Z,988.37
2018-09-07T00:47:02.897Z,988.34
2018-09-07T00:48:55.773Z,988.33
2018-09-07T00:49:55.760Z,988.34
2018-09-07T00:51:48.647Z,988.38
2018-09-07T00:52:48.621Z,988.39
2018-09-07T00:54:41.499Z,988.41
2018-09-07T00:55:41.490Z,988.39
2018-09-07T00:57:34.379Z,988.43
2018-09-07T00:58:34.350Z,988.42
2018-09-07T01:00:27.242Z,988.46
2018-09-07T01:01:27.219Z,988.46
2018-09-07T01:03:20.102Z,988.41
2018-09-07T01:04:20.086Z,988.42
2018-09-07T01:06:12.973Z,988.42
2018-09-07T01:07:12.955Z,988.41
2018-09-07T01:09:05.823Z,988.42
2018-09-07T01:10:05.816Z,988.46
2018-09-07T01:11:58.706Z,988.42
2018-09-07T01:12:58.681Z,988.44
2018-09-07T01:14:52.545Z,988.44
2018-09-07T01:15:52.533Z,988.46
2018-09-07T01:17:45.418Z,988.44
2018-09-07T01:18:45.398Z,988.45
2018-09-07T01:20:38.290Z,988.48
2018-09-07T01:21:38.265Z,988.49
2018-09-07T01:23:31.142Z,988.48
2018-09-07T01:24:31.128Z,988.50
2018-09-07T01:26:24.517Z,988.46
2018-09-07T01:27:24.494Z,988.47
2018-09-07T01:29:17.377Z,988.43
2018-09-07T01:30:17.361Z,988.44
2018-09-07T01:32:10.241Z,988.40
2018-09-07T01:33:10.222Z,988.42
2018-09-07T01:35:03.098Z,988.46
2018-09-07T01:36:03.087Z,988.47
2018-09-07T01:37:55.979Z,988.50
2018-09-07T01:38:55.957Z,988.51
2018-09-07T01:40:48.846Z,988.51
2018-09-07T01:41:48.825Z,988.54
2018-09-07T01:43:42.196Z,988.53
2018-09-07T01:44:42.185Z,988.57
2018-09-07T01:46:35.072Z,988.54
2018-09-07T01:47:35.053Z,988.55
2018-09-07T01:49:28.911Z,988.56
2018-09-07T01:50:28.909Z,988.55
2018-09-07T01:52:21.790Z,988.59
2018-09-07T01:53:21.756Z,988.60
2018-09-07T01:55:14.640Z,988.61
2018-09-07T01:56:14.627Z,988.57
2018-09-07T01:58:07.515Z,988.56
2018-09-07T01:59:07.495Z,988.58
2018-09-07T02:01:00.382Z,988.59
2018-09-07T02:02:00.358Z,988.58
2018-09-07T02:03:53.234Z,988.60
2018-09-07T02:04:53.219Z,988.59
2018-09-07T02:06:46.103Z,988.58
2018-09-07T02:07:46.082Z,988.61
2018-09-07T02:09:38.957Z,988.65
2018-09-07T02:10:38.949Z,988.68
2018-09-07T02:12:31.839Z,988.69
2018-09-07T02:13:31.811Z,988.67
2018-09-07T02:15:24.687Z,988.68
2018-09-07T02:16:24.676Z,988.62
2018-09-07T02:18:17.558Z,988.66
2018-09-07T02:19:17.537Z,988.65
2018-09-07T02:21:10.426Z,988.61
2018-09-07T02:22:10.417Z,988.67
2018-09-07T02:24:04.266Z,988.66
2018-09-07T02:25:04.255Z,988.68
2018-09-07T02:26:57.140Z,988.72
2018-09-07T02:27:57.126Z,988.71
2018-09-07T02:29:50.000Z,988.75
2018-09-07T02:30:49.993Z,988.73
2018-09-07T02:32:43.862Z,988.73
2018-09-07T02:33:43.845Z,988.73
2018-09-07T02:35:36.724Z,988.75
2018-09-07T02:36:36.713Z,988.76
2018-09-07T02:38:29.595Z,988.77
2018-09-07T02:39:29.575Z,988.77
2018-09-07T02:41:22.471Z,988.77
2018-09-07T02:42:22.448Z,988.76
2018-09-07T02:44:15.323Z,988.79
2018-09-07T02:45:15.311Z,988.80
2018-09-07T02:47:08.197Z,988.75
2018-09-07T02:48:08.171Z,988.78
2018-09-07T02:50:01.049Z,988.75
2018-09-07T02:51:01.037Z,988.75
2018-09-07T02:52:53.925Z,988.79
2018-09-07T02:53:53.904Z,988.78
2018-09-07T02:55:46.774Z,988.79
2018-09-07T02:56:46.763Z,988.76
2018-09-07T02:58:39.647Z,988.77
2018-09-07T02:59:39.636Z,988.75
2018-09-07T03:01:32.507Z,988.74
2018-09-07T03:02:32.492Z,988.76
2018-09-07T03:04:25.362Z,988.78
2018-09-07T03:05:25.354Z,988.76
2018-09-07T03:07:18.238Z,988.78
2018-09-07T03:08:18.217Z,988.79
2018-09-07T03:10:11.095Z,988.82
2018-09-07T03:11:11.084Z,988.76
2018-09-07T03:13:03.967Z,988.79
2018-09-07T03:14:03.945Z,988.81
2018-09-07T03:15:56.821Z,988.78
2018-09-07T03:16:56.852Z,988.81
2018-09-07T03:18:49.704Z,988.82
2018-09-07T03:19:49.681Z,988.81
2018-09-07T03:21:42.568Z,988.79
2018-09-07T03:22:42.553Z,988.79
2018-09-07T03:24:35.923Z,988.77
2018-09-07T03:25:35.906Z,988.79
2018-09-07T03:27:28.799Z,988.78
2018-09-07T03:28:28.780Z,988.78
2018-09-07T03:30:21.661Z,988.82
2018-09-07T03:31:21.649Z,988.81
2018-09-07T03:33:14.525Z,988.74
2018-09-07T03:34:14.503Z,988.77
2018-09-07T03:36:07.376Z,988.78
2018-09-07T03:37:07.373Z,988.76
2018-09-07T03:39:00.252Z,988.78
2018-09-07T03:40:00.231Z,988.75
2018-09-07T03:41:53.118Z,988.80
2018-09-07T03:42:53.098Z,988.76
2018-09-07T03:44:45.974Z,988.76
2018-09-07T03:45:45.961Z,988.76
2018-09-07T03:47:38.849Z,988.78
2018-09-07T03:48:38.822Z,988.81
2018-09-07T03:50:31.699Z,988.80
2018-09-07T03:51:31.685Z,988.85
2018-09-07T03:53:25.576Z,988.84
2018-09-07T03:54:25.548Z,988.83
2018-09-07T03:56:18.433Z,988.85
2018-09-07T03:57:18.411Z,988.82
2018-09-07T03:59:11.305Z,988.84
2018-09-07T04:00:11.277Z,988.86
2018-09-07T04:02:04.176Z,988.90
2018-09-07T04:03:04.162Z,988.90
2018-09-07T04:04:57.020Z,988.89
2018-09-07T04:05:57.009Z,988.92
2018-09-07T04:07:49.897Z,988.91
2018-09-07T04:08:49.872Z,988.98
2018-09-07T04:10:42.748Z,988.98
2018-09-07T04:11:42.734Z,988.95
2018-09-07T04:13:35.621Z,988.99
2018-09-07T04:14:35.600Z,988.94
2018-09-07T04:16:28.477Z,989.03
2018-09-07T04:17:28.464Z,989.02
2018-09-07T04:19:21.357Z,989.05
2018-09-07T04:20:21.326Z,989.01
2018-09-07T04:22:14.227Z,989.03
2018-09-07T04:23:14.201Z,988.99
2018-09-07T04:25:08.065Z,989.00
2018-09-07T04:26:08.049Z,989.01
2018-09-07T04:28:00.933Z,989.06
2018-09-07T04:29:00.911Z,989.09
2018-09-07T04:30:53.785Z,989.08
2018-09-07T04:31:53.777Z,989.08
2018-09-07T04:33:46.662Z,989.13
2018-09-07T04:34:46.639Z,989.11
2018-09-07T04:36:39.509Z,989.12
2018-09-07T04:37:39.503Z,989.16
2018-09-07T04:39:32.392Z,989.21
2018-09-07T04:40:32.373Z,989.19
2018-09-07T04:42:25.266Z,989.23
2018-09-07T04:43:25.244Z,989.22
2018-09-07T04:45:18.108Z,989.26
2018-09-07T04:46:18.097Z,989.24
2018-09-07T04:48:11.000Z,989.26
2018-09-07T04:49:10.964Z,989.26
2018-09-07T04:51:03.833Z,989.26
2018-09-07T04:52:03.823Z,989.28
2018-09-07T04:53:56.703Z,989.33
2018-09-07T04:54:56.682Z,989.32
2018-09-07T04:56:49.555Z,989.35
2018-09-07T04:57:49.543Z,989.38
2018-09-07T04:59:43.419Z,989.41
2018-09-07T05:00:43.400Z,989.47
2018-09-07T05:02:36.286Z,989.50
2018-09-07T05:03:36.264Z,989.53
2018-09-07T05:05:29.152Z,989.47
2018-09-07T05:06:29.139Z,989.51
2018-09-07T05:08:22.026Z,989.54
2018-09-07T05:09:22.002Z,989.51
2018-09-07T05:11:14.879Z,989.58
2018-09-07T05:12:14.868Z,989.55
2018-09-07T05:14:07.760Z,989.54
2018-09-07T05:15:07.738Z,989.56
2018-09-07T05:17:00.609Z,989.49
2018-09-07T05:18:00.599Z,989.47
2018-09-07T05:19:53.477Z,989.52
2018-09-07T05:20:53.467Z,989.53
2018-09-07T05:22:46.348Z,989.55
2018-09-07T05:23:46.328Z,989.53
2018-09-07T05:25:39.203Z,989.57
2018-09-07T05:26:39.195Z,989.54
2018-09-07T05:28:33.068Z,989.58
2018-09-07T05:29:33.047Z,989.58
2018-09-07T05:31:26.489Z,989.64
2018-09-07T05:32:26.413Z,989.63
2018-09-07T05:34:19.302Z,989.65
2018-09-07T05:35:19.282Z,989.65
2018-09-07T05:37:12.159Z,989.64
2018-09-07T05:38:12.144Z,989.62
2018-09-07T05:40:05.033Z,989.62
2018-09-07T05:41:05.010Z,989.61
2018-09-07T05:42:57.898Z,989.67
2018-09-07T05:43:57.874Z,989.64
2018-09-07T05:45:51.252Z,989.71
2018-09-07T05:46:51.245Z,989.74
2018-09-07T05:48:44.133Z,989.75
2018-09-07T05:49:44.169Z,989.75
2018-09-07T05:51:36.987Z,989.77
2018-09-07T05:52:36.977Z,989.83
2018-09-07T05:54:29.861Z,989.83
2018-09-07T05:55:29.841Z,989.84
2018-09-07T05:57:22.716Z,989.80
2018-09-07T05:58:22.706Z,989.79
2018-09-07T06:00:15.589Z,989.84
2018-09-07T06:01:15.568Z,989.81
2018-09-07T06:03:09.436Z,989.83
2018-09-07T06:04:09.418Z,989.80
2018-09-07T06:06:02.289Z,989.84
2018-09-07T06:07:02.289Z,989.81
2018-09-07T06:08:55.169Z,989.89
2018-09-07T06:09:55.147Z,989.83
2018-09-07T06:11:49.524Z,989.80
2018-09-07T06:12:49.500Z,989.84
2018-09-07T06:14:42.384Z,989.83
2018-09-07T06:15:42.362Z,989.79
2018-09-07T06:17:35.235Z,989.84
2018-09-07T06:18:35.225Z,989.85
2018-09-07T06:20:28.109Z,989.88
2018-09-07T06:21:28.092Z,989.79
2018-09-07T06:23:21.987Z,989.79
2018-09-07T06:24:21.949Z,989.80
2018-09-07T06:26:14.816Z,989.77
2018-09-07T06:27:14.810Z,989.77
2018-09-07T06:29:07.693Z,989.76
2018-09-07T06:30:07.676Z,989.80
2018-09-07T06:32:01.534Z,989.88
2018-09-07T06:33:01.579Z,989.89
2018-09-07T06:34:54.411Z,989.96
2018-09-07T06:35:54.395Z,989.99
2018-09-07T06:37:47.273Z,990.01
2018-09-07T06:38:47.351Z,990.03
2018-09-07T06:40:40.145Z,990.05
2018-09-07T06:41:40.121Z,990.07
2018-09-07T06:43:33.005Z,990.04
2018-09-07T06:44:32.992Z,990.07
2018-09-07T06:46:25.858Z,990.01
2018-09-07T06:47:25.847Z,990.02
2018-09-07T06:49:18.741Z,990.03
2018-09-07T06:50:18.721Z,990.03
2018-09-07T06:52:11.663Z,990.05
2018-09-07T06:53:11.589Z,990.07
2018-09-07T06:55:04.472Z,990.00
2018-09-07T06:56:04.450Z,989.97
2018-09-07T06:57:57.325Z,989.97
2018-09-07T06:58:57.315Z,989.98
2018-09-07T07:00:50.199Z,989.99
2018-09-07T07:01:50.178Z,989.98
2018-09-07T07:03:43.064Z,990.03
2018-09-07T07:04:43.043Z,990.06
2018-09-07T07:06:35.919Z,990.05
2018-09-07T07:07:35.905Z,990.04
2018-09-07T07:09:28.792Z,990.10
2018-09-07T07:10:28.768Z,990.13
2018-09-07T07:12:21.646Z,990.12
2018-09-07T07:13:21.631Z,990.13
2018-09-07T07:15:14.523Z,990.16
2018-09-07T07:16:14.499Z,990.16
2018-09-07T07:18:07.372Z,990.19
2018-09-07T07:19:07.364Z,990.17
2018-09-07T07:21:00.258Z,990.17
2018-09-07T07:22:00.227Z,990.16
2018-09-07T07:23:53.118Z,990.15
2018-09-07T07:24:53.102Z,990.16
2018-09-07T07:26:45.969Z,990.19
2018-09-07T07:27:45.966Z,990.20
2018-09-07T07:29:38.860Z,990.26
2018-09-07T07:30:38.834Z,990.26
2018-09-07T07:32:31.711Z,990.30
2018-09-07T07:33:31.692Z,990.31
2018-09-07T07:35:24.582Z,990.32
2018-09-07T07:36:24.563Z,990.38
2018-09-07T07:38:17.435Z,990.36
2018-09-07T07:39:17.425Z,990.35
2018-09-07T07:41:10.306Z,990.38
2018-09-07T07:42:10.287Z,990.35
2018-09-07T07:44:03.181Z,990.38
2018-09-07T07:45:03.162Z,990.40
2018-09-07T07:46:56.034Z,990.42
2018-09-07T07:47:56.067Z,990.42
2018-09-07T07:49:48.942Z,990.43
2018-09-07T07:50:48.893Z,990.41
2018-09-07T07:52:41.773Z,990.45
2018-09-07T07:53:41.760Z,990.46
2018-09-07T07:55:34.647Z,990.46
2018-09-07T07:56:34.624Z,990.51
2018-09-07T07:58:27.504Z,990.51
2018-09-07T07:59:27.488Z,990.55
2018-09-07T08:01:20.369Z,990.55
2018-09-07T08:02:20.352Z,990.57
2018-09-07T08:04:13.237Z,990.58
2018-09-07T08:05:13.216Z,990.52
2018-09-07T08:07:06.091Z,990.51
2018-09-07T08:08:06.079Z,990.50
2018-09-07T08:09:58.966Z,990.50
2018-09-07T08:10:58.945Z,990.51
2018-09-07T08:12:51.819Z,990.53
2018-09-07T08:13:51.805Z,990.48
2018-09-07T08:15:44.695Z,990.50
2018-09-07T08:16:44.684Z,990.52
2018-09-07T08:18:37.549Z,990.56
2018-09-07T08:19:37.539Z,990.55
2018-09-07T08:21:30.932Z,990.59
2018-09-07T08:22:30.908Z,990.61
2018-09-07T08:24:23.790Z,990.61
2018-09-07T08:25:23.770Z,990.64
2018-09-07T08:27:16.641Z,990.63
2018-09-07T08:28:16.635Z,990.62
2018-09-07T08:30:09.521Z,990.66
2018-09-07T08:31:09.498Z,990.64
2018-09-07T08:33:02.540Z,990.60
2018-09-07T08:34:02.364Z,990.63
2018-09-07T08:35:55.255Z,990.62
2018-09-07T08:36:55.244Z,990.60
2018-09-07T08:38:48.112Z,990.58
2018-09-07T08:39:48.103Z,990.58
2018-09-07T08:41:40.991Z,990.64
2018-09-07T08:42:40.969Z,990.63
2018-09-07T08:44:33.856Z,990.61
2018-09-07T08:45:33.833Z,990.62
2018-09-07T08:47:27.722Z,990.62
2018-09-07T08:48:27.709Z,990.63
2018-09-07T08:50:20.598Z,990.62
2018-09-07T08:51:20.577Z,990.65
2018-09-07T08:53:13.459Z,990.64
2018-09-07T08:54:13.470Z,990.66
2018-09-07T08:56:06.325Z,990.67
2018-09-07T08:57:06.306Z,990.70
2018-09-07T08:58:59.181Z,990.74
2018-09-07T08:59:59.171Z,990.72
2018-09-07T09:01:53.052Z,990.76
2018-09-07T09:02:53.023Z,990.73
2018-09-07T09:04:45.909Z,990.71
2018-09-07T09:05:45.890Z,990.64
2018-09-07T09:07:38.768Z,990.70
2018-09-07T09:08:38.751Z,990.73
2018-09-07T09:10:31.644Z,990.73
2018-09-07T09:11:31.622Z,990.69
2018-09-07T09:13:24.493Z,990.74
2018-09-07T09:14:24.481Z,990.66
2018-09-07T09:16:17.366Z,990.64
2018-09-07T09:17:17.349Z,990.68
2018-09-07T09:19:10.226Z,990.69
2018-09-07T09:20:10.222Z,990.71
2018-09-07T09:22:03.112Z,990.72
2018-09-07T09:23:03.083Z,990.75
2018-09-07T09:24:55.979Z,990.77
2018-09-07T09:25:55.957Z,990.75
2018-09-07T09:27:49.339Z,990.72
2018-09-07T09:28:49.323Z,990.69
2018-09-07T09:30:42.213Z,990.65
2018-09-07T09:31:42.192Z,990.69
2018-09-07T09:33:35.069Z,990.66
2018-09-07T09:34:35.062Z,990.67
2018-09-07T09:36:27.945Z,990.64
2018-09-07T09:37:27.921Z,990.64
2018-09-07T09:39:20.807Z,990.63
2018-09-07T09:40:20.802Z,990.60
2018-09-07T09:42:13.698Z,990.58
2018-09-07T09:43:13.692Z,990.58
2018-09-07T09:45:06.569Z,990.54
2018-09-07T09:46:06.546Z,990.56
2018-09-07T09:48:00.413Z,990.51
2018-09-07T09:49:00.407Z,990.52
2018-09-07T09:50:53.303Z,990.51
2018-09-07T09:51:53.287Z,990.55
2018-09-07T09:53:46.160Z,990.57
2018-09-07T09:54:46.150Z,990.54
2018-09-07T09:56:39.034Z,990.56
2018-09-07T09:57:39.014Z,990.55
2018-09-07T09:59:31.898Z,990.56
2018-09-07T10:00:31.887Z,990.61
2018-09-07T10:02:24.810Z,990.62
2018-09-07T10:03:24.747Z,990.63
2018-09-07T10:05:17.634Z,990.67
2018-09-07T10:06:17.614Z,990.65
2018-09-07T10:08:10.491Z,990.66
2018-09-07T10:09:10.481Z,990.73
2018-09-07T10:11:03.393Z,990.69
2018-09-07T10:12:03.364Z,990.67
2018-09-07T10:13:56.223Z,990.69
2018-09-07T10:14:56.214Z,990.73
2018-09-07T10:16:49.099Z,990.73
2018-09-07T10:17:49.077Z,990.72
2018-09-07T10:19:41.964Z,990.73
2018-09-07T10:20:41.951Z,990.73
2018-09-07T10:22:34.833Z,990.76
2018-09-07T10:23:34.814Z,990.71
2018-09-07T10:25:28.241Z,990.70
2018-09-07T10:26:28.186Z,990.70
2018-09-07T10:28:21.054Z,990.71
2018-09-07T10:29:21.043Z,990.72
2018-09-07T10:31:13.931Z,990.74
2018-09-07T10:32:13.908Z,990.75
2018-09-07T10:34:06.787Z,990.76
2018-09-07T10:35:06.776Z,990.74
2018-09-07T10:37:00.655Z,990.76
2018-09-07T10:38:00.636Z,990.80
2018-09-07T10:39:53.510Z,990.79
2018-09-07T10:40:53.498Z,990.80
2018-09-07T10:42:46.386Z,990.76
2018-09-07T10:43:46.364Z,990.78
2018-09-07T10:45:39.240Z,990.77
2018-09-07T10:46:39.231Z,990.75
2018-09-07T10:48:32.112Z,990.76
2018-09-07T10:49:32.096Z,990.78
2018-09-07T10:51:24.976Z,990.78
2018-09-07T10:52:24.956Z,990.78
2018-09-07T10:54:17.833Z,990.75
2018-09-07T10:55:17.820Z,990.73
2018-09-07T10:57:10.710Z,990.73
2018-09-07T10:58:10.687Z,990.71
2018-09-07T11:00:03.566Z,990.75
2018-09-07T11:01:03.554Z,990.73
2018-09-07T11:02:56.443Z,990.66
2018-09-07T11:03:56.420Z,990.65
2018-09-07T11:05:49.302Z,990.62
2018-09-07T11:06:49.285Z,990.63
2018-09-07T11:08:42.185Z,990.67
2018-09-07T11:09:42.150Z,990.68
2018-09-07T11:11:35.033Z,990.68
2018-09-07T11:12:35.015Z,990.65
2018-09-07T11:14:27.901Z,990.62
2018-09-07T11:15:27.899Z,990.60
2018-09-07T11:17:20.781Z,990.61
2018-09-07T11:18:20.761Z,990.66
2018-09-07T11:20:13.641Z,990.66
2018-09-07T11:21:13.635Z,990.68
2018-09-07T11:23:07.512Z,990.60
2018-09-07T11:24:07.486Z,990.62
2018-09-07T11:26:00.388Z,990.63
2018-09-07T11:27:00.361Z,990.63
2018-09-07T11:28:54.221Z,990.63
2018-09-07T11:29:54.219Z,990.62
2018-09-07T11:31:47.103Z,990.69
2018-09-07T11:32:47.080Z,990.64
2018-09-07T11:34:39.961Z,990.65
2018-09-07T11:35:40.030Z,990.68
2018-09-07T11:37:32.838Z,990.68
2018-09-07T11:38:32.830Z,990.63
2018-09-07T11:40:25.778Z,990.61
2018-09-07T11:41:25.687Z,990.63
2018-09-07T11:43:18.568Z,990.62
2018-09-07T11:44:18.553Z,990.62
2018-09-07T11:46:11.432Z,990.63
2018-09-07T11:47:11.429Z,990.68
2018-09-07T11:49:04.348Z,990.70
2018-09-07T11:50:04.288Z,990.68
2018-09-07T11:51:57.176Z,990.67
2018-09-07T11:52:57.151Z,990.71
2018-09-07T11:54:50.083Z,990.64
2018-09-07T11:55:50.028Z,990.69
2018-09-07T11:57:42.911Z,990.68
2018-09-07T11:58:42.899Z,990.66
2018-09-07T12:00:35.769Z,990.61
2018-09-07T12:01:35.762Z,990.71
2018-09-07T12:03:28.647Z,990.69
2018-09-07T12:04:28.758Z,990.78
2018-09-07T12:06:21.509Z,990.76
2018-09-07T12:07:21.496Z,990.78
2018-09-07T12:09:14.386Z,990.73
2018-09-07T12:10:14.364Z,990.76
2018-09-07T12:12:07.295Z,990.71
2018-09-07T12:13:07.377Z,990.68
2018-09-07T12:15:00.126Z,990.72
2018-09-07T12:16:00.112Z,990.75
2018-09-07T12:17:53.031Z,990.70
2018-09-07T12:18:53.009Z,990.75
2018-09-07T12:20:45.860Z,990.77
2018-09-07T12:21:45.851Z,990.75
2018-09-07T12:23:38.778Z,990.79
2018-09-07T12:24:38.715Z,990.78
2018-09-07T12:26:31.603Z,990.80
2018-09-07T12:27:31.592Z,990.85
2018-09-07T12:29:25.472Z,990.84
2018-09-07T12:30:25.452Z,990.81
2018-09-07T12:32:18.348Z,990.88
2018-09-07T12:33:18.326Z,990.88
2018-09-07T12:35:11.220Z,990.81
2018-09-07T12:36:11.200Z,990.78
2018-09-07T12:38:04.085Z,990.83
2018-09-07T12:39:04.066Z,990.88
2018-09-07T12:40:56.949Z,990.87
2018-09-07T12:41:56.997Z,990.82
2018-09-07T12:43:49.815Z,990.88
2018-09-07T12:44:49.801Z,990.89
2018-09-07T12:46:42.712Z,990.91
2018-09-07T12:47:42.666Z,990.89
2018-09-07T12:49:35.542Z,990.90
2018-09-07T12:50:35.536Z,990.91
2018-09-07T12:52:29.406Z,990.91
2018-09-07T12:53:29.391Z,990.90
2018-09-07T12:55:22.270Z,990.93
2018-09-07T12:56:22.264Z,990.95
2018-09-07T12:58:15.143Z,990.94
2018-09-07T12:59:15.122Z,990.94
2018-09-07T13:01:08.001Z,990.96
2018-09-07T13:02:07.991Z,990.96
2018-09-07T13:04:00.877Z,990.98
2018-09-07T13:05:00.858Z,991.01
2018-09-07T13:06:54.741Z,990.97
2018-09-07T13:07:54.722Z,991.00
2018-09-07T13:09:47.594Z,991.01
2018-09-07T13:10:47.586Z,991.06
2018-09-07T13:12:40.473Z,991.06
2018-09-07T13:13:40.453Z,991.02
2018-09-07T13:15:33.336Z,991.01
2018-09-07T13:16:33.322Z,991.07
2018-09-07T13:18:26.212Z,991.04
2018-09-07T13:19:26.184Z,991.03
2018-09-07T13:21:19.072Z,991.09
2018-09-07T13:22:19.054Z,991.05
2018-09-07T13:24:11.942Z,991.06
2018-09-07T13:25:11.926Z,991.03
2018-09-07T13:27:04.809Z,991.09
2018-09-07T13:28:04.847Z,991.07
2018-09-07T13:29:57.668Z,991.09
2018-09-07T13:30:57.660Z,991.06
2018-09-07T13:32:50.547Z,991.10
2018-09-07T13:33:50.522Z,991.11
2018-09-07T13:35:43.423Z,991.16
2018-09-07T13:36:43.385Z,991.13
2018-09-07T13:38:36.275Z,991.14
2018-09-07T13:39:36.257Z,991.15
2018-09-07T13:41:29.136Z,991.17
2018-09-07T13:42:29.125Z,991.18
2018-09-07T13:44:22.046Z,991.19
2018-09-07T13:45:22.029Z,991.18
2018-09-07T13:47:14.917Z,991.20
2018-09-07T13:48:14.949Z,991.17
2018-09-07T13:50:07.769Z,991.18
2018-09-07T13:51:07.762Z,991.23
2018-09-07T13:53:00.650Z,991.23
2018-09-07T13:54:00.632Z,991.23
2018-09-07T13:55:53.510Z,991.24
2018-09-07T13:56:53.500Z,991.27
2018-09-07T13:58:46.397Z,991.34
2018-09-07T13:59:46.370Z,991.34
2018-09-07T14:01:39.343Z,991.37
2018-09-07T14:02:39.245Z,991.38
2018-09-07T14:04:32.132Z,991.41
2018-09-07T14:05:32.115Z,991.39
2018-09-07T14:07:24.996Z,991.45
2018-09-07T14:08:24.975Z,991.39
2018-09-07T14:10:17.859Z,991.41
2018-09-07T14:11:17.846Z,991.40
2018-09-07T14:13:10.726Z,991.47
2018-09-07T14:14:10.706Z,991.43
2018-09-07T14:16:03.652Z,991.37
2018-09-07T14:17:03.578Z,991.35
2018-09-07T14:18:56.466Z,991.32
2018-09-07T14:19:56.441Z,991.39
2018-09-07T14:21:49.372Z,991.42
2018-09-07T14:22:49.312Z,991.40
2018-09-07T14:24:42.222Z,991.46
2018-09-07T14:25:42.201Z,991.44
2018-09-07T14:27:35.088Z,991.45
2018-09-07T14:28:35.073Z,991.45
2018-09-07T14:30:28.947Z,991.51
2018-09-07T14:31:28.924Z,991.51
2018-09-07T14:33:21.818Z,991.50
2018-09-07T14:34:21.793Z,991.54
2018-09-07T14:36:14.680Z,991.55
2018-09-07T14:37:14.660Z,991.61
2018-09-07T14:39:07.546Z,991.62
2018-09-07T14:40:07.526Z,991.60
2018-09-07T14:42:01.422Z,991.62
2018-09-07T14:43:01.411Z,991.65
2018-09-07T14:44:54.294Z,991.58
2018-09-07T14:45:54.273Z,991.59
2018-09-07T14:47:47.158Z,991.56
2018-09-07T14:48:47.189Z,991.65
2018-09-07T14:50:40.018Z,991.62
2018-09-07T14:51:40.007Z,991.64
2018-09-07T14:53:32.890Z,991.68
2018-09-07T14:54:32.916Z,991.68
2018-09-07T14:56:26.258Z,991.68
2018-09-07T14:57:26.240Z,991.75
2018-09-07T14:59:19.130Z,991.73
2018-09-07T15:00:19.138Z,991.74
2018-09-07T15:02:11.995Z,991.71
2018-09-07T15:03:11.985Z,991.71
2018-09-07T15:05:05.373Z,991.72
2018-09-07T15:06:05.368Z,991.78
2018-09-07T15:07:58.228Z,991.69
2018-09-07T15:08:58.214Z,991.72
2018-09-07T15:10:51.082Z,991.68
2018-09-07T15:11:51.072Z,991.67
2018-09-07T15:13:43.961Z,991.63
2018-09-07T15:14:43.941Z,991.69
2018-09-07T15:16:36.820Z,991.67
2018-09-07T15:17:36.806Z,991.70
2018-09-07T15:19:29.699Z,991.68
2018-09-07T15:20:29.684Z,991.68
2018-09-07T15:22:22.555Z,991.72
2018-09-07T15:23:22.543Z,991.73
2018-09-07T15:25:16.416Z,991.71
2018-09-07T15:26:16.416Z,991.78
2018-09-07T15:28:09.282Z,991.75
2018-09-07T15:29:09.264Z,991.80
2018-09-07T15:31:02.137Z,991.80
2018-09-07T15:32:02.127Z,991.87
2018-09-07T15:33:55.023Z,991.86
2018-09-07T15:34:54.997Z,991.83
2018-09-07T15:36:47.878Z,991.86
2018-09-07T15:37:47.869Z,991.95
2018-09-07T15:39:40.778Z,991.92
2018-09-07T15:40:40.725Z,991.96
2018-09-07T15:42:33.630Z,992.00
2018-09-07T15:43:33.597Z,992.05
2018-09-07T15:45:26.484Z,992.02
2018-09-07T15:46:26.465Z,992.00
2018-09-07T15:48:19.346Z,992.06
2018-09-07T15:49:19.325Z,992.06
2018-09-07T15:51:12.213Z,992.08
2018-09-07T15:52:12.199Z,992.06
2018-09-07T15:54:05.084Z,992.07
2018-09-07T15:55:05.063Z,992.02
2018-09-07T15:56:57.942Z,992.02
2018-09-07T15:57:57.931Z,991.98
2018-09-07T15:59:50.814Z,991.98
2018-09-07T16:00:50.792Z,992.04
2018-09-07T16:02:43.676Z,992.02
2018-09-07T16:03:43.661Z,992.01
2018-09-07T16:05:36.562Z,992.01
2018-09-07T16:06:36.552Z,992.03
2018-09-07T16:08:29.413Z,992.02
2018-09-07T16:09:29.395Z,992.03
2018-09-07T16:11:22.285Z,992.05
2018-09-07T16:12:22.263Z,992.08
2018-09-07T16:14:15.153Z,992.13
2018-09-07T16:15:15.136Z,992.08
2018-09-07T16:17:08.002Z,992.06
2018-09-07T16:18:07.994Z,992.09
2018-09-07T16:20:00.883Z,992.12
2018-09-07T16:21:00.920Z,992.17
2018-09-07T16:22:53.737Z,992.19
2018-09-07T16:23:53.726Z,992.20
2018-09-07T16:25:46.621Z,992.25
2018-09-07T16:26:46.598Z,992.24
2018-09-07T16:28:39.490Z,992.25
2018-09-07T16:29:39.472Z,992.36
2018-09-07T16:31:32.432Z,992.38
2018-09-07T16:32:32.353Z,992.42
2018-09-07T16:34:25.260Z,992.43
2018-09-07T16:35:25.218Z,992.46
2018-09-07T16:37:18.102Z,992.55
2018-09-07T16:38:18.098Z,992.60
2018-09-07T16:40:10.977Z,992.65
2018-09-07T16:41:10.957Z,992.69
2018-09-07T16:43:03.853Z,992.76
2018-09-07T16:44:03.826Z,992.82
2018-09-07T16:45:56.717Z,992.89
2018-09-07T16:46:56.701Z,992.91
2018-09-07T16:48:49.603Z,992.89
2018-09-07T16:49:49.580Z,992.89
2018-09-07T16:51:42.455Z,992.89
2018-09-07T16:52:42.445Z,992.87
2018-09-07T16:54:35.377Z,992.88
2018-09-07T16:55:35.310Z,992.86
2018-09-07T16:57:28.192Z,992.89
2018-09-07T16:58:28.182Z,992.84
2018-09-07T17:00:21.065Z,992.84
2018-09-07T17:01:21.045Z,992.90
2018-09-07T17:03:14.958Z,992.89
2018-09-07T17:04:14.933Z,992.88
2018-09-07T17:06:07.789Z,992.93
2018-09-07T17:07:07.769Z,992.94
2018-09-07T17:09:00.656Z,992.96
2018-09-07T17:10:00.633Z,992.95
2018-09-07T17:11:53.521Z,993.02
2018-09-07T17:12:53.510Z,992.97
2018-09-07T17:14:46.396Z,992.97
2018-09-07T17:15:46.372Z,992.98
2018-09-07T17:17:39.255Z,992.98
2018-09-07T17:18:39.256Z,992.99
2018-09-07T17:20:32.131Z,993.06
2018-09-07T17:21:32.109Z,993.04
2018-09-07T17:23:24.991Z,993.07
2018-09-07T17:24:24.980Z,993.06
2018-09-07T17:26:17.873Z,993.04
2018-09-07T17:27:17.853Z,993.03
2018-09-07T17:29:10.729Z,993.05
2018-09-07T17:30:10.723Z,993.01
2018-09-07T17:32:03.632Z,993.01
2018-09-07T17:33:03.582Z,992.96
2018-09-07T17:34:56.477Z,992.96
2018-09-07T17:35:56.450Z,993.03
2018-09-07T17:37:49.324Z,993.07
2018-09-07T17:38:49.317Z,993.06
2018-09-07T17:40:42.207Z,993.08
2018-09-07T17:41:42.185Z,993.13
2018-09-07T17:43:35.557Z,993.17
2018-09-07T17:44:35.555Z,993.19
2018-09-07T17:46:28.934Z,993.16
2018-09-07T17:47:28.912Z,993.17
2018-09-07T17:49:21.796Z,993.17
2018-09-07T17:50:21.824Z,993.18
2018-09-07T17:52:14.673Z,993.21
2018-09-07T17:53:14.650Z,993.25
2018-09-07T17:55:09.032Z,993.25
2018-09-07T17:56:09.006Z,993.28
2018-09-07T17:58:01.879Z,993.28
2018-09-07T17:59:01.875Z,993.30